sensor_id;sensor_type;location;lat;lon;timestamp;pressure;altitude;pressure_sealevel;temperature;humidity
34658;BME280;20865;43.312;27.152;2022-11-20T00:01:25;99931.61;;;22.44;54.18
34658;BME280;20865;43.312;27.152;2022-11-20T00:03:54;99948.63;;;22.51;53.98
34658;BME280;20865;43.312;27.152;2022-11-20T00:06:23;99952.30;;;22.62;53.70
34658;BME280;20865;43.312;27.152;2022-11-20T00:08:57;99965.75;;;22.69;53.52
34658;BME280;20865;43.312;27.152;2022-11-20T00:11:26;99949.39;;;22.74;53.19
34658;BME280;20865;43.312;27.152;2022-11-20T00:13:56;99962.15;;;22.74;53.19
34658;BME280;20865;43.312;27.152;2022-11-20T00:16:26;99938.86;;;22.75;53.44
34658;BME280;20865;43.312;27.152;2022-11-20T00:18:54;99942.66;;;22.84;53.21
34658;BME280;20865;43.312;27.152;2022-11-20T00:21:25;99964.80;;;22.85;53.16
34658;BME280;20865;43.312;27.152;2022-11-20T00:23:54;99950.52;;;22.98;52.80
34658;BME280;20865;43.312;27.152;2022-11-20T00:26:24;99955.56;;;23.03;52.06
34658;BME280;20865;43.312;27.152;2022-11-20T00:28:55;99936.41;;;22.99;52.16
34658;BME280;20865;43.312;27.152;2022-11-20T00:31:23;99947.74;;;23.04;52.42
34658;BME280;20865;43.312;27.152;2022-11-20T00:33:51;99939.89;;;23.11;52.30
34658;BME280;20865;43.312;27.152;2022-11-20T00:36:21;99958.11;;;23.10;52.40
34658;BME280;20865;43.312;27.152;2022-11-20T00:38:53;99943.77;;;23.23;52.06
34658;BME280;20865;43.312;27.152;2022-11-20T00:41:22;99946.94;;;23.28;51.96
34658;BME280;20865;43.312;27.152;2022-11-20T00:43:52;99939.29;;;23.43;52.01
34658;BME280;20865;43.312;27.152;2022-11-20T00:46:22;99936.57;;;23.53;51.70
34658;BME280;20865;43.312;27.152;2022-11-20T00:48:50;99932.76;;;23.65;51.47
34658;BME280;20865;43.312;27.152;2022-11-20T00:51:20;99931.39;;;23.65;51.50
34658;BME280;20865;43.312;27.152;2022-11-20T00:53:48;99934.62;;;23.80;51.27
34658;BME280;20865;43.312;27.152;2022-11-20T00:56:18;99941.11;;;23.89;50.90
34658;BME280;20865;43.312;27.152;2022-11-20T00:58:47;99940.61;;;23.89;50.92
34658;BME280;20865;43.312;27.152;2022-11-20T01:01:20;99936.94;;;23.94;50.98
34658;BME280;20865;43.312;27.152;2022-11-20T01:03:52;99941.48;;;24.09;50.51
34658;BME280;20865;43.312;27.152;2022-11-20T01:06:25;99941.06;;;24.04;50.81
34658;BME280;20865;43.312;27.152;2022-11-20T01:08:57;99928.09;;;24.21;50.30
34658;BME280;20865;43.312;27.152;2022-11-20T01:11:31;99934.92;;;24.31;49.94
34658;BME280;20865;43.312;27.152;2022-11-20T01:14:00;99933.68;;;24.30;50.01
34658;BME280;20865;43.312;27.152;2022-11-20T01:16:38;99933.68;;;24.30;49.84
34658;BME280;20865;43.312;27.152;2022-11-20T01:19:03;99927.38;;;24.39;49.49
34658;BME280;20865;43.312;27.152;2022-11-20T01:21:37;99916.11;;;24.38;49.49
34658;BME280;20865;43.312;27.152;2022-11-20T01:24:06;99912.81;;;24.44;49.32
34658;BME280;20865;43.312;27.152;2022-11-20T01:26:36;99929.56;;;24.45;49.38
34658;BME280;20865;43.312;27.152;2022-11-20T01:29:05;99916.84;;;24.50;48.99
34658;BME280;20865;43.312;27.152;2022-11-20T01:31:36;99923.16;;;24.50;49.06
34658;BME280;20865;43.312;27.152;2022-11-20T01:34:10;99928.49;;;24.52;49.04
34658;BME280;20865;43.312;27.152;2022-11-20T01:36:38;99905.92;;;24.59;48.73
34658;BME280;20865;43.312;27.152;2022-11-20T01:39:15;99909.80;;;24.57;49.17
34658;BME280;20865;43.312;27.152;2022-11-20T01:41:44;99916.05;;;24.63;49.10
34658;BME280;20865;43.312;27.152;2022-11-20T01:44:51;99914.16;;;24.73;48.84
34658;BME280;20865;43.312;27.152;2022-11-20T01:47:21;99915.95;;;24.68;48.84
34658;BME280;20865;43.312;27.152;2022-11-20T01:49:56;99905.75;;;24.70;48.97
34658;BME280;20865;43.312;27.152;2022-11-20T01:52:22;99913.16;;;24.64;49.12
34658;BME280;20865;43.312;27.152;2022-11-20T01:54:57;99921.61;;;24.90;48.60
34658;BME280;20865;43.312;27.152;2022-11-20T01:57:25;99917.74;;;24.83;48.74
34658;BME280;20865;43.312;27.152;2022-11-20T02:00:00;99924.58;;;24.74;49.06
34658;BME280;20865;43.312;27.152;2022-11-20T02:02:27;99912.87;;;24.67;49.24
34658;BME280;20865;43.312;27.152;2022-11-20T02:04:57;99931.01;;;24.92;48.58
34658;BME280;20865;43.312;27.152;2022-11-20T02:07:26;99929.35;;;24.95;48.41
34658;BME280;20865;43.312;27.152;2022-11-20T02:09:54;99936.91;;;24.97;48.34
34658;BME280;20865;43.312;27.152;2022-11-20T02:12:22;99922.63;;;25.03;48.06
34658;BME280;20865;43.312;27.152;2022-11-20T02:15:08;99920.28;;;25.04;47.96
34658;BME280;20865;43.312;27.152;2022-11-20T02:17:36;99922.39;;;25.10;47.92
34658;BME280;20865;43.312;27.152;2022-11-20T02:20:05;99923.32;;;24.91;48.13
34658;BME280;20865;43.312;27.152;2022-11-20T02:22:48;99912.00;;;24.77;48.85
34658;BME280;20865;43.312;27.152;2022-11-20T02:25:13;99909.91;;;24.75;49.04
34658;BME280;20865;43.312;27.152;2022-11-20T02:27:41;99910.86;;;24.79;48.87
34658;BME280;20865;43.312;27.152;2022-11-20T02:30:10;99899.36;;;24.76;49.33
34658;BME280;20865;43.312;27.152;2022-11-20T02:32:38;99896.06;;;24.95;48.72
34658;BME280;20865;43.312;27.152;2022-11-20T02:35:38;99892.03;;;24.76;49.08
34658;BME280;20865;43.312;27.152;2022-11-20T02:37:40;99899.73;;;25.00;48.60
34658;BME280;20865;43.312;27.152;2022-11-20T02:40:08;99883.20;;;24.92;48.38
34658;BME280;20865;43.312;27.152;2022-11-20T02:42:36;99887.44;;;25.00;48.13
34658;BME280;20865;43.312;27.152;2022-11-20T02:45:05;99871.13;;;24.94;48.30
34658;BME280;20865;43.312;27.152;2022-11-20T02:47:33;99861.22;;;24.93;48.29
34658;BME280;20865;43.312;27.152;2022-11-20T02:50:01;99846.30;;;24.78;48.44
34658;BME280;20865;43.312;27.152;2022-11-20T02:52:28;99854.51;;;24.68;48.83
34658;BME280;20865;43.312;27.152;2022-11-20T02:54:57;99859.04;;;24.74;48.35
34658;BME280;20865;43.312;27.152;2022-11-20T02:57:24;99856.98;;;24.85;48.25
34658;BME280;20865;43.312;27.152;2022-11-20T02:59:52;99864.08;;;24.92;48.12
34658;BME280;20865;43.312;27.152;2022-11-20T03:02:19;99872.28;;;24.92;47.81
34658;BME280;20865;43.312;27.152;2022-11-20T03:04:47;99862.66;;;24.88;47.85
34658;BME280;20865;43.312;27.152;2022-11-20T03:07:15;99860.95;;;24.87;47.88
34658;BME280;20865;43.312;27.152;2022-11-20T03:09:42;99860.52;;;24.82;47.83
34658;BME280;20865;43.312;27.152;2022-11-20T03:12:10;99862.08;;;24.94;47.59
34658;BME280;20865;43.312;27.152;2022-11-20T03:14:38;99862.20;;;24.92;47.38
34658;BME280;20865;43.312;27.152;2022-11-20T03:17:05;99861.67;;;25.03;47.13
34658;BME280;20865;43.312;27.152;2022-11-20T03:19:33;99852.30;;;24.91;47.12
34658;BME280;20865;43.312;27.152;2022-11-20T03:22:00;99847.92;;;25.08;47.03
34658;BME280;20865;43.312;27.152;2022-11-20T03:24:28;99845.66;;;25.04;47.14
34658;BME280;20865;43.312;27.152;2022-11-20T03:26:56;99848.87;;;25.03;46.91
34658;BME280;20865;43.312;27.152;2022-11-20T03:29:23;99835.28;;;25.07;46.80
34658;BME280;20865;43.312;27.152;2022-11-20T03:31:51;99844.20;;;25.00;47.08
34658;BME280;20865;43.312;27.152;2022-11-20T03:34:18;99838.19;;;24.96;46.99
34658;BME280;20865;43.312;27.152;2022-11-20T03:36:46;99829.61;;;25.05;46.88
34658;BME280;20865;43.312;27.152;2022-11-20T03:39:13;99836.27;;;25.06;47.02
34658;BME280;20865;43.312;27.152;2022-11-20T03:41:42;99818.97;;;25.11;46.94
34658;BME280;20865;43.312;27.152;2022-11-20T03:44:11;99829.36;;;25.22;46.64
34658;BME280;20865;43.312;27.152;2022-11-20T03:46:39;99826.24;;;25.21;46.58
34658;BME280;20865;43.312;27.152;2022-11-20T03:49:06;99837.69;;;25.10;46.95
34658;BME280;20865;43.312;27.152;2022-11-20T03:51:35;99850.75;;;25.26;46.54
34658;BME280;20865;43.312;27.152;2022-11-20T03:54:05;99845.55;;;25.33;46.47
34658;BME280;20865;43.312;27.152;2022-11-20T03:56:36;99844.98;;;25.29;46.69
34658;BME280;20865;43.312;27.152;2022-11-20T03:59:04;99845.55;;;25.33;46.53
34658;BME280;20865;43.312;27.152;2022-11-20T04:01:34;99845.84;;;25.30;46.63
34658;BME280;20865;43.312;27.152;2022-11-20T04:04:02;99841.35;;;25.25;46.60
34658;BME280;20865;43.312;27.152;2022-11-20T04:06:35;99832.82;;;25.28;46.66
34658;BME280;20865;43.312;27.152;2022-11-20T04:09:03;99826.06;;;25.08;47.08
34658;BME280;20865;43.312;27.152;2022-11-20T04:11:33;99827.56;;;25.30;46.57
34658;BME280;20865;43.312;27.152;2022-11-20T04:14:03;99828.03;;;25.39;46.41
34658;BME280;20865;43.312;27.152;2022-11-20T04:16:35;99835.67;;;25.36;46.44
34658;BME280;20865;43.312;27.152;2022-11-20T04:19:04;99823.38;;;25.36;46.30
34658;BME280;20865;43.312;27.152;2022-11-20T04:21:32;99830.72;;;25.35;46.29
34658;BME280;20865;43.312;27.152;2022-11-20T04:24:00;99829.00;;;25.66;45.73
34658;BME280;20865;43.312;27.152;2022-11-20T04:26:29;99824.41;;;25.66;45.68
34658;BME280;20865;43.312;27.152;2022-11-20T04:28:57;99822.63;;;25.61;45.62
34658;BME280;20865;43.312;27.152;2022-11-20T04:31:27;99824.89;;;25.66;45.65
34658;BME280;20865;43.312;27.152;2022-11-20T04:33:59;99817.64;;;25.57;45.79
34658;BME280;20865;43.312;27.152;2022-11-20T04:36:26;99833.73;;;25.60;45.66
34658;BME280;20865;43.312;27.152;2022-11-20T04:38:56;99827.25;;;25.61;45.73
34658;BME280;20865;43.312;27.152;2022-11-20T04:41:26;99818.55;;;25.48;45.71
34658;BME280;20865;43.312;27.152;2022-11-20T04:43:55;99829.51;;;25.65;45.50
34658;BME280;20865;43.312;27.152;2022-11-20T04:46:26;99822.71;;;25.70;45.44
34658;BME280;20865;43.312;27.152;2022-11-20T04:48:54;99836.80;;;25.75;45.34
34658;BME280;20865;43.312;27.152;2022-11-20T04:51:22;99831.31;;;25.57;45.46
34658;BME280;20865;43.312;27.152;2022-11-20T04:53:49;99855.32;;;25.49;45.74
34658;BME280;20865;43.312;27.152;2022-11-20T04:56:17;99844.11;;;25.70;45.34
34658;BME280;20865;43.312;27.152;2022-11-20T04:58:45;99842.00;;;25.50;45.78
34658;BME280;20865;43.312;27.152;2022-11-20T05:01:15;99822.70;;;25.38;46.01
34658;BME280;20865;43.312;27.152;2022-11-20T05:03:44;99832.48;;;25.27;46.30
34658;BME280;20865;43.312;27.152;2022-11-20T05:06:14;99839.22;;;25.32;46.21
34658;BME280;20865;43.312;27.152;2022-11-20T05:08:42;99839.05;;;25.34;46.17
34658;BME280;20865;43.312;27.152;2022-11-20T05:11:12;99842.30;;;25.33;46.09
34658;BME280;20865;43.312;27.152;2022-11-20T05:13:41;99840.72;;;25.31;46.21
34658;BME280;20865;43.312;27.152;2022-11-20T05:16:17;99827.27;;;25.33;46.17
34658;BME280;20865;43.312;27.152;2022-11-20T05:18:45;99834.86;;;25.26;46.22
34658;BME280;20865;43.312;27.152;2022-11-20T05:21:14;99846.87;;;25.29;46.23
34658;BME280;20865;43.312;27.152;2022-11-20T05:23:43;99833.80;;;25.36;45.78
34658;BME280;20865;43.312;27.152;2022-11-20T05:26:20;99844.52;;;25.34;46.03
34658;BME280;20865;43.312;27.152;2022-11-20T05:28:48;99848.37;;;25.27;46.17
34658;BME280;20865;43.312;27.152;2022-11-20T05:31:24;99843.88;;;25.36;45.93
34658;BME280;20865;43.312;27.152;2022-11-20T05:33:51;99840.67;;;25.27;46.04
34658;BME280;20865;43.312;27.152;2022-11-20T05:36:19;99837.86;;;25.32;45.71
34658;BME280;20865;43.312;27.152;2022-11-20T05:38:47;99838.16;;;25.29;45.70
34658;BME280;20865;43.312;27.152;2022-11-20T05:41:16;99855.63;;;25.32;45.74
34658;BME280;20865;43.312;27.152;2022-11-20T05:43:45;99849.48;;;25.34;45.67
34658;BME280;20865;43.312;27.152;2022-11-20T05:46:14;99856.52;;;25.37;45.76
34658;BME280;20865;43.312;27.152;2022-11-20T05:48:43;99862.66;;;25.35;45.74
34658;BME280;20865;43.312;27.152;2022-11-20T05:51:13;99852.15;;;25.72;45.02
34658;BME280;20865;43.312;27.152;2022-11-20T05:53:41;99859.25;;;25.37;45.54
34658;BME280;20865;43.312;27.152;2022-11-20T05:56:14;99862.97;;;25.32;45.75
34658;BME280;20865;43.312;27.152;2022-11-20T05:58:42;99866.86;;;25.29;45.69
34658;BME280;20865;43.312;27.152;2022-11-20T06:01:18;99876.56;;;25.41;45.65
34658;BME280;20865;43.312;27.152;2022-11-20T06:03:47;99876.17;;;25.36;45.78
34658;BME280;20865;43.312;27.152;2022-11-20T06:06:17;99883.09;;;25.58;45.04
34658;BME280;20865;43.312;27.152;2022-11-20T06:08:46;99877.33;;;25.34;45.71
34658;BME280;20865;43.312;27.152;2022-11-20T06:11:14;99877.37;;;25.38;45.64
34658;BME280;20865;43.312;27.152;2022-11-20T06:13:42;99880.88;;;25.44;45.50
34658;BME280;20865;43.312;27.152;2022-11-20T06:16:11;99886.64;;;25.55;45.29
34658;BME280;20865;43.312;27.152;2022-11-20T06:18:40;99884.47;;;25.58;45.14
34658;BME280;20865;43.312;27.152;2022-11-20T06:21:19;99889.13;;;25.48;45.36
34658;BME280;20865;43.312;27.152;2022-11-20T06:23:38;99893.34;;;25.56;45.22
34658;BME280;20865;43.312;27.152;2022-11-20T06:26:08;99887.88;;;25.56;45.07
34658;BME280;20865;43.312;27.152;2022-11-20T06:28:36;99888.77;;;25.61;44.80
34658;BME280;20865;43.312;27.152;2022-11-20T06:31:05;99885.44;;;25.53;44.91
34658;BME280;20865;43.312;27.152;2022-11-20T06:33:33;99893.90;;;25.60;44.87
34658;BME280;20865;43.312;27.152;2022-11-20T06:36:01;99890.91;;;25.67;44.88
34658;BME280;20865;43.312;27.152;2022-11-20T06:38:29;99885.58;;;25.65;44.90
34658;BME280;20865;43.312;27.152;2022-11-20T06:40:57;99889.31;;;25.78;44.72
34658;BME280;20865;43.312;27.152;2022-11-20T06:43:25;99883.64;;;25.76;44.65
34658;BME280;20865;43.312;27.152;2022-11-20T06:45:53;99890.99;;;25.75;44.63
34658;BME280;20865;43.312;27.152;2022-11-20T06:48:21;99889.92;;;26.00;44.19
34658;BME280;20865;43.312;27.152;2022-11-20T06:50:51;99893.17;;;25.72;44.60
34658;BME280;20865;43.312;27.152;2022-11-20T06:53:18;99882.44;;;25.74;44.60
34658;BME280;20865;43.312;27.152;2022-11-20T06:55:47;99875.88;;;25.81;44.42
34658;BME280;20865;43.312;27.152;2022-11-20T06:58:16;99881.73;;;25.86;44.42
34658;BME280;20865;43.312;27.152;2022-11-20T07:00:44;99874.34;;;25.82;44.62
34658;BME280;20865;43.312;27.152;2022-11-20T07:03:12;99872.16;;;25.86;44.48
34658;BME280;20865;43.312;27.152;2022-11-20T07:05:40;99873.39;;;25.87;44.25
34658;BME280;20865;43.312;27.152;2022-11-20T07:08:07;99875.31;;;25.91;44.33
34658;BME280;20865;43.312;27.152;2022-11-20T07:10:35;99872.95;;;25.96;44.23
34658;BME280;20865;43.312;27.152;2022-11-20T07:13:03;99861.88;;;25.98;44.27
34658;BME280;20865;43.312;27.152;2022-11-20T07:15:31;99860.55;;;26.02;44.25
34658;BME280;20865;43.312;27.152;2022-11-20T07:18:02;99846.10;;;26.13;43.88
34658;BME280;20865;43.312;27.152;2022-11-20T07:20:29;99854.63;;;25.93;44.25
34658;BME280;20865;43.312;27.152;2022-11-20T07:22:58;99854.59;;;25.88;44.29
34658;BME280;20865;43.312;27.152;2022-11-20T07:25:26;99857.78;;;26.55;43.17
34658;BME280;20865;43.312;27.152;2022-11-20T07:27:58;99841.34;;;26.55;42.81
34658;BME280;20865;43.312;27.152;2022-11-20T07:30:28;99864.13;;;26.60;42.87
34658;BME280;20865;43.312;27.152;2022-11-20T07:32:56;99860.91;;;26.60;42.92
34658;BME280;20865;43.312;27.152;2022-11-20T07:35:24;99866.70;;;26.57;42.96
34658;BME280;20865;43.312;27.152;2022-11-20T07:37:52;99853.35;;;26.58;43.02
34658;BME280;20865;43.312;27.152;2022-11-20T07:40:20;99852.62;;;26.52;43.00
34658;BME280;20865;43.312;27.152;2022-11-20T07:42:52;99866.65;;;26.53;42.90
34658;BME280;20865;43.312;27.152;2022-11-20T07:45:21;99850.44;;;26.60;42.64
34658;BME280;20865;43.312;27.152;2022-11-20T07:47:50;99850.84;;;26.65;42.43
34658;BME280;20865;43.312;27.152;2022-11-20T07:50:18;99863.05;;;26.53;42.65
34658;BME280;20865;43.312;27.152;2022-11-20T07:52:46;99849.98;;;26.65;42.46
34658;BME280;20865;43.312;27.152;2022-11-20T07:55:14;99841.59;;;26.66;42.62
34658;BME280;20865;43.312;27.152;2022-11-20T07:57:42;99843.48;;;26.66;42.44
34658;BME280;20865;43.312;27.152;2022-11-20T08:00:11;99848.30;;;26.68;42.47
34658;BME280;20865;43.312;27.152;2022-11-20T08:02:39;99841.77;;;26.65;42.60
34658;BME280;20865;43.312;27.152;2022-11-20T08:05:08;99840.54;;;26.63;42.43
34658;BME280;20865;43.312;27.152;2022-11-20T08:07:41;99854.80;;;26.71;42.51
34658;BME280;20865;43.312;27.152;2022-11-20T08:10:11;99856.75;;;26.38;43.17
34658;BME280;20865;43.312;27.152;2022-11-20T08:12:46;99852.47;;;26.36;43.27
34658;BME280;20865;43.312;27.152;2022-11-20T08:15:32;99855.86;;;26.34;43.20
34658;BME280;20865;43.312;27.152;2022-11-20T08:18:02;99866.61;;;26.31;43.26
34658;BME280;20865;43.312;27.152;2022-11-20T08:20:30;99866.24;;;26.26;43.68
34658;BME280;20865;43.312;27.152;2022-11-20T08:23:02;99864.70;;;26.28;43.62
34658;BME280;20865;43.312;27.152;2022-11-20T08:25:32;99860.80;;;26.30;43.64
34658;BME280;20865;43.312;27.152;2022-11-20T08:28:08;99865.02;;;26.25;43.54
34658;BME280;20865;43.312;27.152;2022-11-20T08:30:37;99869.98;;;26.25;43.79
34658;BME280;20865;43.312;27.152;2022-11-20T08:33:07;99867.48;;;26.14;43.94
34658;BME280;20865;43.312;27.152;2022-11-20T08:35:36;99872.43;;;26.32;43.83
34658;BME280;20865;43.312;27.152;2022-11-20T08:38:06;99864.34;;;26.45;43.79
34658;BME280;20865;43.312;27.152;2022-11-20T08:40:34;99880.02;;;26.56;43.32
34658;BME280;20865;43.312;27.152;2022-11-20T08:43:01;99882.99;;;26.63;43.36
34658;BME280;20865;43.312;27.152;2022-11-20T08:45:29;99873.27;;;26.65;43.21
34658;BME280;20865;43.312;27.152;2022-11-20T08:48:03;99876.69;;;26.67;43.20
34658;BME280;20865;43.312;27.152;2022-11-20T08:50:31;99870.52;;;26.65;43.42
34658;BME280;20865;43.312;27.152;2022-11-20T08:53:03;99876.03;;;26.69;43.45
34658;BME280;20865;43.312;27.152;2022-11-20T08:55:31;99874.66;;;26.69;43.53
34658;BME280;20865;43.312;27.152;2022-11-20T08:58:03;99862.25;;;26.43;44.13
34658;BME280;20865;43.312;27.152;2022-11-20T09:00:32;99869.98;;;26.25;44.33
34658;BME280;20865;43.312;27.152;2022-11-20T09:03:00;99858.52;;;26.44;43.75
34658;BME280;20865;43.312;27.152;2022-11-20T09:05:28;99867.85;;;26.51;43.95
34658;BME280;20865;43.312;27.152;2022-11-20T09:07:59;99863.72;;;26.47;43.96
34658;BME280;20865;43.312;27.152;2022-11-20T09:10:27;99874.58;;;26.43;44.19
34658;BME280;20865;43.312;27.152;2022-11-20T09:12:55;99881.31;;;26.66;43.43
34658;BME280;20865;43.312;27.152;2022-11-20T09:15:23;99875.94;;;26.43;44.02
34658;BME280;20865;43.312;27.152;2022-11-20T09:17:55;99885.82;;;26.53;43.87
34658;BME280;20865;43.312;27.152;2022-11-20T09:20:23;99870.08;;;26.51;43.79
34658;BME280;20865;43.312;27.152;2022-11-20T09:22:51;99856.20;;;26.53;44.04
34658;BME280;20865;43.312;27.152;2022-11-20T09:25:18;99853.88;;;26.40;43.96
34658;BME280;20865;43.312;27.152;2022-11-20T09:27:46;99832.63;;;26.38;44.15
34658;BME280;20865;43.312;27.152;2022-11-20T09:30:15;99843.03;;;26.52;44.11
34658;BME280;20865;43.312;27.152;2022-11-20T09:32:43;99830.45;;;26.46;44.13
34658;BME280;20865;43.312;27.152;2022-11-20T09:35:11;99837.98;;;26.44;44.11
34658;BME280;20865;43.312;27.152;2022-11-20T09:37:39;99824.95;;;26.42;43.80
34658;BME280;20865;43.312;27.152;2022-11-20T09:40:16;99806.86;;;26.71;43.61
34658;BME280;20865;43.312;27.152;2022-11-20T09:42:49;99823.78;;;26.66;43.74
34658;BME280;20865;43.312;27.152;2022-11-20T09:53:56;99818.11;;;26.42;44.58
34658;BME280;20865;43.312;27.152;2022-11-20T09:56:21;99822.02;;;26.39;44.31
34658;BME280;20865;43.312;27.152;2022-11-20T09:58:52;99815.50;;;26.54;44.19
34658;BME280;20865;43.312;27.152;2022-11-20T10:01:23;99820.23;;;26.74;43.95
34658;BME280;20865;43.312;27.152;2022-11-20T10:06:53;99817.19;;;26.51;44.16
34658;BME280;20865;43.312;27.152;2022-11-20T10:25:40;99800.22;;;26.47;44.38
34658;BME280;20865;43.312;27.152;2022-11-20T10:28:15;99795.42;;;26.49;44.23
34658;BME280;20865;43.312;27.152;2022-11-20T10:30:43;99791.58;;;26.42;44.21
34658;BME280;20865;43.312;27.152;2022-11-20T10:33:16;99798.02;;;26.51;44.28
34658;BME280;20865;43.312;27.152;2022-11-20T10:35:52;99825.31;;;26.60;44.09
34658;BME280;20865;43.312;27.152;2022-11-20T10:38:31;99829.27;;;26.66;44.09
34658;BME280;20865;43.312;27.152;2022-11-20T10:41:02;99843.28;;;26.63;44.00
34658;BME280;20865;43.312;27.152;2022-11-20T10:43:59;99847.05;;;26.62;43.96
34658;BME280;20865;43.312;27.152;2022-11-20T10:46:24;99847.41;;;26.67;43.96
34658;BME280;20865;43.312;27.152;2022-11-20T10:48:52;99843.48;;;26.66;43.76
34658;BME280;20865;43.312;27.152;2022-11-20T10:51:43;99842.13;;;26.70;43.91
34658;BME280;20865;43.312;27.152;2022-11-20T10:54:59;99845.70;;;26.66;43.67
34658;BME280;20865;43.312;27.152;2022-11-20T10:56:53;99842.15;;;26.74;43.36
34658;BME280;20865;43.312;27.152;2022-11-20T10:59:55;99842.84;;;26.72;43.33
34658;BME280;20865;43.312;27.152;2022-11-20T11:02:23;99852.41;;;26.68;43.24
34658;BME280;20865;43.312;27.152;2022-11-20T11:04:52;99862.33;;;26.69;43.00
34658;BME280;20865;43.312;27.152;2022-11-20T11:07:33;99866.44;;;26.69;42.74
34658;BME280;20865;43.312;27.152;2022-11-20T11:09:57;99868.91;;;26.80;42.80
34658;BME280;20865;43.312;27.152;2022-11-20T11:12:27;99876.17;;;26.89;42.59
34658;BME280;20865;43.312;27.152;2022-11-20T11:14:57;99884.33;;;27.07;42.29
34658;BME280;20865;43.312;27.152;2022-11-20T11:17:33;99880.56;;;27.08;42.12
34658;BME280;20865;43.312;27.152;2022-11-20T11:20:00;99879.23;;;27.12;42.14
34658;BME280;20865;43.312;27.152;2022-11-20T11:22:30;99883.72;;;27.13;41.93
34658;BME280;20865;43.312;27.152;2022-11-20T11:24:58;99884.67;;;27.08;41.87
34658;BME280;20865;43.312;27.152;2022-11-20T11:27:26;99886.14;;;26.98;42.05
34658;BME280;20865;43.312;27.152;2022-11-20T11:30:13;99884.25;;;27.17;41.78
34658;BME280;20865;43.312;27.152;2022-11-20T11:32:42;99872.61;;;27.23;41.55
34658;BME280;20865;43.312;27.152;2022-11-20T11:35:23;99878.79;;;27.21;41.57
34658;BME280;20865;43.312;27.152;2022-11-20T11:37:52;99878.61;;;27.22;41.66
34658;BME280;20865;43.312;27.152;2022-11-20T11:40:21;99881.87;;;27.22;41.74
34658;BME280;20865;43.312;27.152;2022-11-20T11:42:57;99868.50;;;27.23;41.95
34658;BME280;20865;43.312;27.152;2022-11-20T11:45:26;99873.50;;;27.23;41.81
34658;BME280;20865;43.312;27.152;2022-11-20T11:47:57;99871.59;;;27.20;41.98
34658;BME280;20865;43.312;27.152;2022-11-20T11:50:29;99869.34;;;27.19;41.84
34658;BME280;20865;43.312;27.152;2022-11-20T11:53:14;99864.89;;;27.18;41.83
34658;BME280;20865;43.312;27.152;2022-11-20T11:58:46;99892.05;;;26.81;42.62
34658;BME280;20865;43.312;27.152;2022-11-20T12:01:26;99885.66;;;26.77;40.74
34658;BME280;20865;43.312;27.152;2022-11-20T12:06:56;99876.61;;;26.54;39.96
34658;BME280;20865;43.312;27.152;2022-11-20T12:09:23;99879.17;;;26.38;39.82
34658;BME280;20865;43.312;27.152;2022-11-20T12:11:54;99881.44;;;26.25;39.88
34658;BME280;20865;43.312;27.152;2022-11-20T12:16:56;99872.09;;;26.13;40.33
34658;BME280;20865;43.312;27.152;2022-11-20T12:19:24;99865.88;;;26.07;40.83
34658;BME280;20865;43.312;27.152;2022-11-20T12:21:56;99862.45;;;26.05;41.19
34658;BME280;20865;43.312;27.152;2022-11-20T12:24:32;99860.88;;;26.03;41.31
34658;BME280;20865;43.312;27.152;2022-11-20T12:27:16;99862.42;;;26.01;41.38
34658;BME280;20865;43.312;27.152;2022-11-20T12:29:56;99857.59;;;25.99;41.46
34658;BME280;20865;43.312;27.152;2022-11-20T12:40:44;99857.16;;;25.90;41.42
34658;BME280;20865;43.312;27.152;2022-11-20T12:43:24;99855.69;;;25.96;41.33
34658;BME280;20865;43.312;27.152;2022-11-20T12:46:48;99851.72;;;25.94;41.40
34658;BME280;20865;43.312;27.152;2022-11-20T12:52:10;99863.00;;;25.91;41.26
34658;BME280;20865;43.312;27.152;2022-11-20T12:55:00;99860.70;;;25.86;41.45
34658;BME280;20865;43.312;27.152;2022-11-20T12:57:39;99860.20;;;25.87;41.58
34658;BME280;20865;43.312;27.152;2022-11-20T13:00:14;99867.41;;;25.88;41.54
34658;BME280;20865;43.312;27.152;2022-11-20T13:05:40;99874.90;;;25.86;41.71
34658;BME280;20865;43.312;27.152;2022-11-20T13:08:18;99880.37;;;25.86;41.46
34658;BME280;20865;43.312;27.152;2022-11-20T13:10:54;99879.00;;;25.86;41.80
34658;BME280;20865;43.312;27.152;2022-11-20T13:16:11;99866.69;;;25.86;41.75
34658;BME280;20865;43.312;27.152;2022-11-20T13:18:39;99864.81;;;25.86;41.78
34658;BME280;20865;43.312;27.152;2022-11-20T13:21:35;99858.48;;;25.86;41.71
34658;BME280;20865;43.312;27.152;2022-11-20T13:23:52;99863.95;;;25.86;41.91
34658;BME280;20865;43.312;27.152;2022-11-20T13:26:22;99862.93;;;25.87;41.87
34658;BME280;20865;43.312;27.152;2022-11-20T13:29:16;99869.08;;;25.85;41.56
34658;BME280;20865;43.312;27.152;2022-11-20T13:31:47;99868.88;;;25.82;42.00
34658;BME280;20865;43.312;27.152;2022-11-20T13:34:27;99869.05;;;25.81;42.24
34658;BME280;20865;43.312;27.152;2022-11-20T13:36:58;99866.58;;;25.78;42.39
34658;BME280;20865;43.312;27.152;2022-11-20T13:39:34;99865.86;;;25.76;42.28
34658;BME280;20865;43.312;27.152;2022-11-20T13:44:53;99855.86;;;25.66;42.82
34658;BME280;20865;43.312;27.152;2022-11-20T13:47:26;99861.94;;;25.60;42.36
34658;BME280;20865;43.312;27.152;2022-11-20T13:49:55;99869.98;;;25.62;42.51
34658;BME280;20865;43.312;27.152;2022-11-20T14:00:33;99874.30;;;25.51;42.82
34658;BME280;20865;43.312;27.152;2022-11-20T14:03:25;99884.20;;;25.52;42.98
34658;BME280;20865;43.312;27.152;2022-11-20T14:05:35;99884.89;;;25.50;42.99
34658;BME280;20865;43.312;27.152;2022-11-20T14:08:05;99875.83;;;25.49;43.01
34658;BME280;20865;43.312;27.152;2022-11-20T14:10:33;99874.80;;;25.50;43.01
34658;BME280;20865;43.312;27.152;2022-11-20T14:13:18;99888.82;;;25.51;42.95